TNO1122 KCHS-KSAV
Flight info
| Callsign | TNO1122 |
|---|---|
| Flight time | 0h 56m |
| Altitude | 6500 |
| Route | SOOOP |
| Aircraft | C172/L-SFG/C |
Departure
| Time | 2026-04-30 11:49 |
|---|---|
| Airport | Charleston International Airport (KCHS) |
Arrival
| Time | 2026-04-30 12:46 |
|---|---|
| Airport | Savannah Hilton Head International Airport (KSAV) |
| Time | Latitude | Longitude | Altitude | Speed | Heading |
|---|---|---|---|---|---|
| 2026-04-30 11:44 | 32.90186 | -80.04695 | 49 ft | 0 kts | 262° |
| 2026-04-30 11:45 | 32.90186 | -80.04693 | 49 ft | 1 kts | 264° |
| 2026-04-30 11:46 | 32.90193 | -80.04695 | 49 ft | 5 kts | 11° |
| 2026-04-30 11:46 | 32.90247 | -80.04653 | 49 ft | 14 kts | 57° |
| 2026-04-30 11:46 | 32.90328 | -80.04577 | 49 ft | 17 kts | 5° |
| 2026-04-30 11:46 | 32.90459 | -80.04575 | 49 ft | 20 kts | 1° |
| 2026-04-30 11:47 | 32.90577 | -80.04589 | 49 ft | 12 kts | 348° |
| 2026-04-30 11:47 | 32.90639 | -80.04626 | 49 ft | 10 kts | 330° |
| 2026-04-30 11:47 | 32.90704 | -80.04628 | 49 ft | 11 kts | 50° |
| 2026-04-30 11:47 | 32.90755 | -80.04546 | 49 ft | 13 kts | 54° |
| 2026-04-30 11:48 | 32.90808 | -80.04454 | 49 ft | 11 kts | 98° |
| 2026-04-30 11:48 | 32.90782 | -80.04416 | 49 ft | 1 kts | 145° |
| 2026-04-30 11:48 | 32.90650 | -80.04316 | 49 ft | 53 kts | 149° |
| 2026-04-30 11:48 | 32.90190 | -80.03970 | 77 ft | 95 kts | 150° |
| 2026-04-30 11:49 | 32.89604 | -80.03541 | 264 ft | 101 kts | 156° |
| 2026-04-30 11:49 | 32.88974 | -80.03618 | 425 ft | 92 kts | 226° |
| 2026-04-30 11:49 | 32.88704 | -80.04239 | 726 ft | 82 kts | 250° |
| 2026-04-30 11:49 | 32.88411 | -80.04849 | 899 ft | 89 kts | 243° |
| 2026-04-30 11:50 | 32.88089 | -80.05495 | 1082 ft | 91 kts | 240° |
| 2026-04-30 11:50 | 32.87687 | -80.06096 | 1250 ft | 95 kts | 229° |
| 2026-04-30 11:50 | 32.87219 | -80.06635 | 1421 ft | 92 kts | 227° |
| 2026-04-30 11:50 | 32.86738 | -80.07147 | 1562 ft | 96 kts | 227° |
| 2026-04-30 11:51 | 32.86243 | -80.07662 | 1745 ft | 92 kts | 227° |
| 2026-04-30 11:51 | 32.85748 | -80.08166 | 1893 ft | 95 kts | 227° |
| 2026-04-30 11:51 | 32.85245 | -80.08672 | 2067 ft | 93 kts | 226° |
| 2026-04-30 11:51 | 32.84756 | -80.09164 | 2244 ft | 93 kts | 226° |
| 2026-04-30 11:52 | 32.84260 | -80.09661 | 2412 ft | 92 kts | 226° |
| 2026-04-30 11:52 | 32.83773 | -80.10150 | 2596 ft | 92 kts | 227° |
| 2026-04-30 11:52 | 32.83281 | -80.10643 | 2757 ft | 93 kts | 227° |
| 2026-04-30 11:52 | 32.82799 | -80.11125 | 2950 ft | 89 kts | 227° |
| 2026-04-30 11:53 | 32.82319 | -80.11606 | 3112 ft | 90 kts | 227° |
| 2026-04-30 11:53 | 32.81847 | -80.12079 | 3302 ft | 88 kts | 227° |
| 2026-04-30 11:53 | 32.81383 | -80.12542 | 3485 ft | 87 kts | 228° |
| 2026-04-30 11:53 | 32.80917 | -80.13010 | 3637 ft | 87 kts | 227° |
| 2026-04-30 11:54 | 32.80452 | -80.13475 | 3787 ft | 86 kts | 228° |
| 2026-04-30 11:54 | 32.80004 | -80.13923 | 3942 ft | 82 kts | 229° |
| 2026-04-30 11:54 | 32.79581 | -80.14346 | 4164 ft | 77 kts | 227° |
| 2026-04-30 11:54 | 32.79171 | -80.14758 | 4356 ft | 77 kts | 228° |
| 2026-04-30 11:55 | 32.78755 | -80.15175 | 4496 ft | 78 kts | 229° |
| 2026-04-30 11:55 | 32.78338 | -80.15594 | 4654 ft | 80 kts | 229° |
| 2026-04-30 11:55 | 32.77919 | -80.16009 | 4844 ft | 77 kts | 229° |
| 2026-04-30 11:55 | 32.77514 | -80.16415 | 5037 ft | 75 kts | 229° |
| 2026-04-30 11:56 | 32.77124 | -80.16807 | 5214 ft | 74 kts | 229° |
| 2026-04-30 11:56 | 32.76731 | -80.17200 | 5388 ft | 73 kts | 229° |
| 2026-04-30 11:56 | 32.76343 | -80.17588 | 5566 ft | 72 kts | 230° |
| 2026-04-30 11:56 | 32.75962 | -80.17969 | 5731 ft | 71 kts | 229° |
| 2026-04-30 11:57 | 32.75590 | -80.18341 | 5897 ft | 70 kts | 230° |
| 2026-04-30 11:57 | 32.75221 | -80.18710 | 6068 ft | 68 kts | 230° |
| 2026-04-30 11:57 | 32.74861 | -80.19070 | 6239 ft | 67 kts | 230° |
| 2026-04-30 11:57 | 32.74507 | -80.19425 | 6379 ft | 68 kts | 230° |
| 2026-04-30 11:58 | 32.74137 | -80.19795 | 6503 ft | 71 kts | 229° |
| 2026-04-30 11:58 | 32.73734 | -80.20200 | 6550 ft | 82 kts | 228° |
| 2026-04-30 11:58 | 32.73264 | -80.20667 | 6536 ft | 93 kts | 227° |
| 2026-04-30 11:58 | 32.72749 | -80.21176 | 6525 ft | 99 kts | 227° |
| 2026-04-30 11:59 | 32.72210 | -80.21708 | 6513 ft | 102 kts | 226° |
| 2026-04-30 11:59 | 32.71667 | -80.22246 | 6507 ft | 103 kts | 226° |
| 2026-04-30 11:59 | 32.71114 | -80.22794 | 6502 ft | 104 kts | 227° |
| 2026-04-30 11:59 | 32.70560 | -80.23345 | 6499 ft | 103 kts | 226° |
| 2026-04-30 12:00 | 32.70008 | -80.23895 | 6499 ft | 103 kts | 226° |
| 2026-04-30 12:00 | 32.69457 | -80.24444 | 6499 ft | 103 kts | 226° |
| 2026-04-30 12:00 | 32.68911 | -80.24987 | 6503 ft | 103 kts | 226° |
| 2026-04-30 12:00 | 32.68359 | -80.25538 | 6501 ft | 103 kts | 226° |
| 2026-04-30 12:01 | 32.67816 | -80.26079 | 6501 ft | 103 kts | 226° |
| 2026-04-30 12:01 | 32.67265 | -80.26628 | 6497 ft | 103 kts | 226° |
| 2026-04-30 12:01 | 32.66712 | -80.27179 | 6496 ft | 103 kts | 227° |
| 2026-04-30 12:01 | 32.66172 | -80.27716 | 6504 ft | 102 kts | 227° |
| 2026-04-30 12:02 | 32.65625 | -80.28261 | 6496 ft | 102 kts | 226° |
| 2026-04-30 12:02 | 32.65078 | -80.28805 | 6501 ft | 102 kts | 226° |
| 2026-04-30 12:02 | 32.64537 | -80.29345 | 6503 ft | 103 kts | 226° |
| 2026-04-30 12:02 | 32.63986 | -80.29894 | 6502 ft | 103 kts | 227° |
| 2026-04-30 12:03 | 32.63443 | -80.30433 | 6504 ft | 103 kts | 226° |
| 2026-04-30 12:03 | 32.62341 | -80.31529 | 6500 ft | 103 kts | 226° |
| 2026-04-30 12:03 | 32.61799 | -80.32069 | 6499 ft | 103 kts | 226° |
| 2026-04-30 12:04 | 32.61250 | -80.32614 | 6496 ft | 103 kts | 226° |
| 2026-04-30 12:04 | 32.60702 | -80.33159 | 6498 ft | 102 kts | 226° |
| 2026-04-30 12:04 | 32.60155 | -80.33704 | 6497 ft | 102 kts | 227° |
| 2026-04-30 12:04 | 32.59608 | -80.34247 | 6499 ft | 102 kts | 226° |
| 2026-04-30 12:05 | 32.59061 | -80.34790 | 6498 ft | 103 kts | 226° |
| 2026-04-30 12:05 | 32.58511 | -80.35337 | 6493 ft | 103 kts | 226° |
| 2026-04-30 12:05 | 32.57968 | -80.35876 | 6497 ft | 103 kts | 226° |
| 2026-04-30 12:05 | 32.57417 | -80.36424 | 6498 ft | 103 kts | 226° |
| 2026-04-30 12:06 | 32.56866 | -80.36971 | 6506 ft | 102 kts | 226° |
| 2026-04-30 12:06 | 32.56327 | -80.37508 | 6505 ft | 103 kts | 226° |
| 2026-04-30 12:06 | 32.55775 | -80.38054 | 6508 ft | 103 kts | 226° |
| 2026-04-30 12:06 | 32.55227 | -80.38598 | 6505 ft | 104 kts | 226° |
| 2026-04-30 12:07 | 32.54671 | -80.39149 | 6497 ft | 104 kts | 226° |
| 2026-04-30 12:07 | 32.54117 | -80.39699 | 6496 ft | 103 kts | 226° |
| 2026-04-30 12:07 | 32.53567 | -80.40245 | 6498 ft | 103 kts | 226° |
| 2026-04-30 12:07 | 32.53017 | -80.40792 | 6501 ft | 103 kts | 227° |
| 2026-04-30 12:08 | 32.52476 | -80.41328 | 6501 ft | 103 kts | 226° |
| 2026-04-30 12:08 | 32.51924 | -80.41875 | 6499 ft | 103 kts | 226° |
| 2026-04-30 12:08 | 32.51371 | -80.42424 | 6501 ft | 103 kts | 226° |
| 2026-04-30 12:08 | 32.50828 | -80.42962 | 6500 ft | 103 kts | 226° |
| 2026-04-30 12:09 | 32.50275 | -80.43510 | 6496 ft | 103 kts | 226° |
| 2026-04-30 12:09 | 32.49730 | -80.44050 | 6496 ft | 101 kts | 226° |
| 2026-04-30 12:09 | 32.49191 | -80.44585 | 6497 ft | 100 kts | 227° |
| 2026-04-30 12:09 | 32.48665 | -80.45109 | 6498 ft | 100 kts | 227° |
| 2026-04-30 12:10 | 32.48131 | -80.45639 | 6499 ft | 100 kts | 227° |
| 2026-04-30 12:10 | 32.47597 | -80.46168 | 6499 ft | 100 kts | 227° |
| 2026-04-30 12:10 | 32.47062 | -80.46698 | 6498 ft | 100 kts | 227° |
| 2026-04-30 12:10 | 32.46526 | -80.47229 | 6498 ft | 100 kts | 226° |
| 2026-04-30 12:11 | 32.45997 | -80.47753 | 6495 ft | 100 kts | 226° |
| 2026-04-30 12:11 | 32.45463 | -80.48282 | 6490 ft | 100 kts | 226° |
| 2026-04-30 12:11 | 32.44929 | -80.48810 | 6493 ft | 100 kts | 227° |
| 2026-04-30 12:11 | 32.44398 | -80.49336 | 6492 ft | 99 kts | 227° |
| 2026-04-30 12:12 | 32.43867 | -80.49863 | 6494 ft | 100 kts | 226° |
| 2026-04-30 12:12 | 32.43336 | -80.50389 | 6524 ft | 99 kts | 225° |
| 2026-04-30 12:12 | 32.42815 | -80.50905 | 6539 ft | 99 kts | 225° |
| 2026-04-30 12:12 | 32.42284 | -80.51431 | 6541 ft | 100 kts | 225° |
| 2026-04-30 12:13 | 32.41747 | -80.51963 | 6541 ft | 101 kts | 225° |
| 2026-04-30 12:13 | 32.41206 | -80.52498 | 6541 ft | 101 kts | 225° |
| 2026-04-30 12:13 | 32.40663 | -80.53035 | 6540 ft | 102 kts | 225° |
| 2026-04-30 12:13 | 32.40119 | -80.53574 | 6540 ft | 102 kts | 225° |
| 2026-04-30 12:14 | 32.39577 | -80.54111 | 6540 ft | 102 kts | 225° |
| 2026-04-30 12:14 | 32.39040 | -80.54646 | 6541 ft | 102 kts | 225° |
| 2026-04-30 12:14 | 32.38496 | -80.55187 | 6540 ft | 102 kts | 226° |
| 2026-04-30 12:14 | 32.37953 | -80.55732 | 6537 ft | 102 kts | 226° |
| 2026-04-30 12:15 | 32.37434 | -80.56300 | 6539 ft | 100 kts | 236° |
| 2026-04-30 12:15 | 32.37084 | -80.56992 | 6543 ft | 99 kts | 245° |
| 2026-04-30 12:15 | 32.36774 | -80.57727 | 6543 ft | 99 kts | 247° |
| 2026-04-30 12:15 | 32.36479 | -80.58467 | 6542 ft | 100 kts | 248° |
| 2026-04-30 12:16 | 32.36189 | -80.59211 | 6544 ft | 99 kts | 248° |
| 2026-04-30 12:16 | 32.35901 | -80.59958 | 6545 ft | 100 kts | 248° |
| 2026-04-30 12:16 | 32.35617 | -80.60697 | 6544 ft | 100 kts | 248° |
| 2026-04-30 12:16 | 32.35330 | -80.61447 | 6542 ft | 100 kts | 248° |
| 2026-04-30 12:17 | 32.34755 | -80.62947 | 6542 ft | 100 kts | 248° |
| 2026-04-30 12:17 | 32.34469 | -80.63697 | 6543 ft | 100 kts | 248° |
| 2026-04-30 12:17 | 32.34185 | -80.64437 | 6544 ft | 100 kts | 248° |
| 2026-04-30 12:18 | 32.33897 | -80.65190 | 6543 ft | 100 kts | 248° |
| 2026-04-30 12:18 | 32.33611 | -80.65937 | 6544 ft | 100 kts | 248° |
| 2026-04-30 12:18 | 32.33325 | -80.66684 | 6542 ft | 100 kts | 248° |
| 2026-04-30 12:18 | 32.33040 | -80.67430 | 6545 ft | 100 kts | 248° |
| 2026-04-30 12:19 | 32.32756 | -80.68170 | 6546 ft | 100 kts | 249° |
| 2026-04-30 12:19 | 32.32469 | -80.68919 | 6546 ft | 100 kts | 249° |
| 2026-04-30 12:19 | 32.32184 | -80.69663 | 6548 ft | 99 kts | 249° |
| 2026-04-30 12:19 | 32.31898 | -80.70410 | 6544 ft | 100 kts | 249° |
| 2026-04-30 12:20 | 32.31613 | -80.71153 | 6547 ft | 99 kts | 249° |
| 2026-04-30 12:20 | 32.31327 | -80.71898 | 6550 ft | 99 kts | 249° |
| 2026-04-30 12:20 | 32.31042 | -80.72642 | 6549 ft | 99 kts | 249° |
| 2026-04-30 12:20 | 32.30756 | -80.73387 | 6549 ft | 99 kts | 249° |
| 2026-04-30 12:21 | 32.30470 | -80.74132 | 6549 ft | 100 kts | 249° |
| 2026-04-30 12:21 | 32.30186 | -80.74870 | 6550 ft | 100 kts | 249° |
| 2026-04-30 12:21 | 32.29900 | -80.75616 | 6553 ft | 100 kts | 249° |
| 2026-04-30 12:21 | 32.29613 | -80.76364 | 6551 ft | 100 kts | 249° |
| 2026-04-30 12:22 | 32.29326 | -80.77111 | 6552 ft | 100 kts | 249° |
| 2026-04-30 12:22 | 32.29010 | -80.77847 | 6549 ft | 100 kts | 251° |
| 2026-04-30 12:22 | 32.28864 | -80.78645 | 6554 ft | 99 kts | 262° |
| 2026-04-30 12:22 | 32.28761 | -80.79440 | 6550 ft | 99 kts | 263° |
| 2026-04-30 12:23 | 32.28658 | -80.80249 | 6531 ft | 101 kts | 263° |
| 2026-04-30 12:23 | 32.28553 | -80.81075 | 6505 ft | 101 kts | 263° |
| 2026-04-30 12:23 | 32.28448 | -80.81896 | 6499 ft | 101 kts | 263° |
| 2026-04-30 12:23 | 32.28343 | -80.82710 | 6469 ft | 100 kts | 262° |
| 2026-04-30 12:24 | 32.28238 | -80.83524 | 6347 ft | 102 kts | 263° |
| 2026-04-30 12:24 | 32.28127 | -80.84368 | 6224 ft | 104 kts | 263° |
| 2026-04-30 12:24 | 32.28014 | -80.85219 | 6103 ft | 105 kts | 263° |
| 2026-04-30 12:24 | 32.27897 | -80.86076 | 5979 ft | 106 kts | 263° |
| 2026-04-30 12:25 | 32.27777 | -80.86928 | 5855 ft | 107 kts | 263° |
| 2026-04-30 12:25 | 32.27653 | -80.87794 | 5730 ft | 107 kts | 263° |
| 2026-04-30 12:25 | 32.27525 | -80.88661 | 5606 ft | 107 kts | 263° |
| 2026-04-30 12:25 | 32.27395 | -80.89531 | 5481 ft | 107 kts | 263° |
| 2026-04-30 12:26 | 32.27308 | -80.90106 | 5398 ft | 107 kts | 262° |
| 2026-04-30 12:26 | 32.27129 | -80.91264 | 5232 ft | 108 kts | 263° |
| 2026-04-30 12:26 | 32.27035 | -80.91852 | 5149 ft | 108 kts | 262° |
| 2026-04-30 12:26 | 32.26893 | -80.92721 | 5021 ft | 108 kts | 262° |
| 2026-04-30 12:27 | 32.26750 | -80.93579 | 4896 ft | 108 kts | 262° |
| 2026-04-30 12:27 | 32.26602 | -80.94451 | 4770 ft | 108 kts | 263° |
| 2026-04-30 12:27 | 32.26450 | -80.95321 | 4646 ft | 108 kts | 262° |
| 2026-04-30 12:27 | 32.26297 | -80.96175 | 4535 ft | 107 kts | 262° |
| 2026-04-30 12:28 | 32.26143 | -80.97012 | 4495 ft | 101 kts | 262° |
| 2026-04-30 12:28 | 32.25994 | -80.97809 | 4491 ft | 97 kts | 262° |
| 2026-04-30 12:28 | 32.25848 | -80.98568 | 4494 ft | 94 kts | 262° |
| 2026-04-30 12:28 | 32.25704 | -80.99315 | 4498 ft | 93 kts | 262° |
| 2026-04-30 12:29 | 32.25559 | -81.00064 | 4502 ft | 94 kts | 262° |
| 2026-04-30 12:29 | 32.25415 | -81.00817 | 4479 ft | 97 kts | 262° |
| 2026-04-30 12:29 | 32.25265 | -81.01619 | 4408 ft | 102 kts | 262° |
| 2026-04-30 12:29 | 32.25111 | -81.02445 | 4338 ft | 104 kts | 262° |
| 2026-04-30 12:30 | 32.24955 | -81.03286 | 4266 ft | 105 kts | 263° |
| 2026-04-30 12:30 | 32.24794 | -81.04129 | 4193 ft | 105 kts | 262° |
| 2026-04-30 12:30 | 32.24632 | -81.04965 | 4117 ft | 106 kts | 262° |
| 2026-04-30 12:30 | 32.24467 | -81.05813 | 4041 ft | 105 kts | 262° |
| 2026-04-30 12:31 | 32.24297 | -81.06659 | 3964 ft | 106 kts | 262° |
| 2026-04-30 12:31 | 32.24128 | -81.07505 | 3889 ft | 106 kts | 262° |
| 2026-04-30 12:31 | 32.23957 | -81.08350 | 3811 ft | 106 kts | 262° |
| 2026-04-30 12:31 | 32.23788 | -81.09185 | 3737 ft | 106 kts | 262° |
| 2026-04-30 12:32 | 32.23616 | -81.10032 | 3663 ft | 106 kts | 262° |
| 2026-04-30 12:32 | 32.23442 | -81.10879 | 3587 ft | 106 kts | 262° |
| 2026-04-30 12:32 | 32.23265 | -81.11722 | 3513 ft | 106 kts | 262° |
| 2026-04-30 12:32 | 32.23087 | -81.12563 | 3438 ft | 105 kts | 262° |
| 2026-04-30 12:33 | 32.22904 | -81.13401 | 3360 ft | 105 kts | 262° |
| 2026-04-30 12:33 | 32.22725 | -81.14229 | 3285 ft | 105 kts | 262° |
| 2026-04-30 12:33 | 32.22542 | -81.15069 | 3208 ft | 105 kts | 262° |
| 2026-04-30 12:33 | 32.22357 | -81.15908 | 3133 ft | 105 kts | 262° |
| 2026-04-30 12:34 | 32.22171 | -81.16743 | 3058 ft | 105 kts | 262° |
| 2026-04-30 12:34 | 32.21984 | -81.17576 | 2983 ft | 105 kts | 262° |
| 2026-04-30 12:34 | 32.21796 | -81.18409 | 2908 ft | 105 kts | 262° |
| 2026-04-30 12:34 | 32.21615 | -81.19235 | 2834 ft | 105 kts | 262° |
| 2026-04-30 12:35 | 32.21429 | -81.20071 | 2756 ft | 105 kts | 262° |
| 2026-04-30 12:35 | 32.21272 | -81.20913 | 2676 ft | 104 kts | 264° |
| 2026-04-30 12:35 | 32.21138 | -81.21747 | 2604 ft | 105 kts | 265° |
| 2026-04-30 12:35 | 32.21006 | -81.22592 | 2534 ft | 105 kts | 265° |
| 2026-04-30 12:36 | 32.20877 | -81.23428 | 2507 ft | 102 kts | 265° |
| 2026-04-30 12:36 | 32.20751 | -81.24236 | 2505 ft | 99 kts | 265° |
| 2026-04-30 12:36 | 32.20627 | -81.25028 | 2509 ft | 97 kts | 265° |
| 2026-04-30 12:36 | 32.20501 | -81.25808 | 2509 ft | 96 kts | 265° |
| 2026-04-30 12:37 | 32.20376 | -81.26577 | 2509 ft | 96 kts | 265° |
| 2026-04-30 12:37 | 32.20251 | -81.27348 | 2509 ft | 95 kts | 265° |
| 2026-04-30 12:37 | 32.20125 | -81.28118 | 2510 ft | 95 kts | 265° |
| 2026-04-30 12:37 | 32.20000 | -81.28888 | 2510 ft | 95 kts | 265° |
| 2026-04-30 12:38 | 32.19876 | -81.29654 | 2510 ft | 95 kts | 265° |
| 2026-04-30 12:38 | 32.19753 | -81.30413 | 2507 ft | 95 kts | 265° |
| 2026-04-30 12:38 | 32.19629 | -81.31181 | 2509 ft | 95 kts | 265° |
| 2026-04-30 12:38 | 32.19505 | -81.31947 | 2510 ft | 95 kts | 265° |
| 2026-04-30 12:39 | 32.19382 | -81.32715 | 2502 ft | 95 kts | 265° |
| 2026-04-30 12:39 | 32.19222 | -81.33480 | 2495 ft | 99 kts | 250° |
| 2026-04-30 12:39 | 32.18593 | -81.33880 | 2506 ft | 113 kts | 195° |
| 2026-04-30 12:39 | 32.17854 | -81.34083 | 2512 ft | 108 kts | 211° |
| 2026-04-30 12:40 | 32.17154 | -81.34430 | 2505 ft | 109 kts | 212° |
| 2026-04-30 12:40 | 32.16454 | -81.34785 | 2501 ft | 109 kts | 212° |
| 2026-04-30 12:40 | 32.15757 | -81.35139 | 2500 ft | 109 kts | 212° |
| 2026-04-30 12:40 | 32.15066 | -81.35488 | 2501 ft | 109 kts | 213° |
| 2026-04-30 12:41 | 32.14342 | -81.35778 | 2499 ft | 114 kts | 198° |
| 2026-04-30 12:41 | 32.13549 | -81.35596 | 2494 ft | 126 kts | 148° |
| 2026-04-30 12:41 | 32.13141 | -81.34691 | 2515 ft | 126 kts | 101° |
| 2026-04-30 12:41 | 32.12991 | -81.33676 | 2509 ft | 127 kts | 95° |
| 2026-04-30 12:42 | 32.12905 | -81.32633 | 2501 ft | 127 kts | 90° |
| 2026-04-30 12:42 | 32.12870 | -81.31582 | 2465 ft | 130 kts | 87° |
| 2026-04-30 12:42 | 32.12873 | -81.30525 | 2344 ft | 125 kts | 85° |
| 2026-04-30 12:42 | 32.12896 | -81.29527 | 2201 ft | 115 kts | 84° |
| 2026-04-30 12:43 | 32.12917 | -81.28620 | 2041 ft | 110 kts | 85° |
| 2026-04-30 12:43 | 32.12933 | -81.27726 | 1877 ft | 107 kts | 86° |
| 2026-04-30 12:43 | 32.12939 | -81.26857 | 1715 ft | 105 kts | 87° |
| 2026-04-30 12:43 | 32.12935 | -81.26002 | 1550 ft | 104 kts | 89° |
| 2026-04-30 12:44 | 32.12913 | -81.25202 | 1401 ft | 93 kts | 88° |
| 2026-04-30 12:44 | 32.12912 | -81.24433 | 1119 ft | 96 kts | 89° |
| 2026-04-30 12:44 | 32.12895 | -81.23639 | 819 ft | 95 kts | 91° |
| 2026-04-30 12:44 | 32.12882 | -81.22844 | 477 ft | 96 kts | 92° |
| 2026-04-30 12:45 | 32.12873 | -81.22090 | 251 ft | 89 kts | 90° |
| 2026-04-30 12:45 | 32.12858 | -81.21383 | 114 ft | 83 kts | 91° |
| 2026-04-30 12:45 | 32.12862 | -81.20738 | 74 ft | 75 kts | 89° |
| 2026-04-30 12:45 | 32.12861 | -81.20185 | 58 ft | 53 kts | 89° |
| 2026-04-30 12:46 | 32.12854 | -81.19864 | 54 ft | 28 kts | 75° |
| 2026-04-30 12:46 | 32.12856 | -81.19688 | 54 ft | 16 kts | 90° |
| 2026-04-30 12:46 | 32.12841 | -81.19604 | 54 ft | 9 kts | 121° |
| 2026-04-30 12:46 | 32.12772 | -81.19524 | 54 ft | 17 kts | 142° |
| 2026-04-30 12:47 | 32.12720 | -81.19409 | 54 ft | 16 kts | 94° |
| 2026-04-30 12:47 | 32.12722 | -81.19282 | 54 ft | 15 kts | 88° |
| 2026-04-30 12:47 | 32.12687 | -81.19224 | 54 ft | 9 kts | 163° |
| 2026-04-30 12:47 | 32.12670 | -81.19179 | 54 ft | 4 kts | 90° |
| 2026-04-30 12:48 | 32.12670 | -81.19174 | 54 ft | 0 kts | 89° |